Time;durP1;ratioP1;P1;durP2;ratioP2;P2;SDS_P1;SDS_P2;PMS_P1;PMS_P2;Temp;Humidity;BMP_temperature;BMP_pressure;BME280_temperature;BME280_humidity;BME280_pressure;Samples;Min_cycle;Max_cycle;Signal;HPM_P1;HPM_P2
2023/08/01 07:01:22;;;;;;;1.50;0.60;;;18.30;99.90;21.20;99793.00;;;;6249444;22;1445403;-73
2023/08/01 07:03:50;;;;;;;3.70;2.47;;;18.50;99.90;21.50;99775.00;;;;6307452;22;20190;-73
2023/08/01 07:06:36;;;;;;;3.47;2.20;;;19.10;99.90;20.00;99777.00;;;;6309166;22;20464;-70
2023/08/01 07:09:03;;;;;;;2.10;1.75;;;18.70;99.90;20.60;99744.00;;;;6307669;22;20223;-69
2023/08/01 07:11:51;;;;;;;8.35;3.88;;;18.70;99.90;21.00;99763.00;;;;6307986;22;20224;-69
2023/08/01 07:14:37;;;;;;;2.70;2.00;;;18.80;99.90;20.10;99742.00;;;;6307385;22;20584;-69
2023/08/01 07:17:10;;;;;;;4.80;2.28;;;18.70;99.90;21.00;99790.00;;;;6307505;22;20568;-69
2023/08/01 07:19:44;;;;;;;0.57;0.50;;;18.80;99.90;20.50;99786.00;;;;6309045;22;20525;-68
2023/08/01 07:22:32;;;;;;;1.42;1.33;;;18.70;99.90;19.90;99786.00;;;;6309394;22;20187;-69
2023/08/01 07:25:13;;;;;;;9.27;3.13;;;18.40;99.90;19.70;99794.00;;;;6293636;22;20164;-69
2023/08/01 07:27:39;;;;;;;3.92;2.45;;;18.30;99.90;21.50;99752.00;;;;6281293;22;20152;-69
2023/08/01 07:30:12;;;;;;;3.33;2.03;;;19.10;99.90;21.70;99796.00;;;;6280817;22;20164;-69
2023/08/01 07:32:47;;;;;;;11.27;1.05;;;19.80;99.90;21.80;99794.00;;;;6307679;22;20165;-69
2023/08/01 07:35:13;;;;;;;3.03;2.05;;;19.60;99.90;20.60;99794.00;;;;6281518;22;20238;-69
2023/08/01 07:37:43;;;;;;;4.85;2.80;;;19.20;99.90;19.50;99790.00;;;;6307869;22;20229;-68
2023/08/01 07:40:10;;;;;;;4.97;3.05;;;18.70;99.90;20.20;99789.00;;;;6307149;22;20144;-69
2023/08/01 07:42:50;;;;;;;1.65;1.27;;;18.60;99.90;20.20;99800.00;;;;6280970;22;20164;-68
2023/08/01 07:45:19;;;;;;;1.40;1.30;;;18.50;99.90;20.90;99802.00;;;;6281711;22;20155;-69
2023/08/01 07:47:51;;;;;;;0.68;0.68;;;18.60;99.90;21.00;99798.00;;;;6309129;22;20172;-69
2023/08/01 07:50:22;;;;;;;3.57;2.00;;;18.60;99.90;20.60;99807.00;;;;6306784;22;20156;-68
2023/08/01 07:52:59;;;;;;;1.88;1.73;;;18.70;99.90;20.70;99804.00;;;;6307394;22;20690;-69
2023/08/01 07:55:37;;;;;;;0.20;0.20;;;18.90;99.90;20.80;99773.00;;;;6307535;22;20144;-72
2023/08/01 07:58:02;;;;;;;2.33;1.17;;;19.30;99.90;20.90;99800.00;;;;6281801;22;20481;-69
2023/08/01 08:00:49;;;;;;;3.67;1.60;;;19.10;99.90;20.90;99809.00;;;;6307341;22;20247;-68
2023/08/01 08:03:35;;;;;;;1.92;1.70;;;19.20;99.90;21.90;99812.00;;;;6257004;22;20184;-69
2023/08/01 08:06:03;;;;;;;0.88;0.82;;;19.90;99.90;23.50;99829.00;;;;6232782;22;20247;-69
2023/08/01 08:08:45;;;;;;;4.10;1.73;;;20.80;99.90;22.00;99823.00;;;;6308840;22;20144;-68
2023/08/01 08:11:16;;;;;;;3.47;2.13;;;20.40;99.90;21.80;99792.00;;;;6280971;22;20136;-69
2023/08/01 08:14:07;;;;;;;2.10;1.90;;;20.00;99.90;20.10;99817.00;;;;6281110;22;20601;-73
2023/08/01 08:16:47;;;;;;;;;;;;;;;;;;;;;
2023/08/01 08:19:13;;;;;;;3.22;2.35;;;18.90;99.90;20.80;99829.00;;;;6280531;22;20219;-72
2023/08/01 08:21:48;;;;;;;11.57;3.05;;;18.80;99.90;21.00;99818.00;;;;6254963;22;20160;-77
2023/08/01 08:24:14;;;;;;;4.03;2.03;;;18.90;99.90;21.00;99831.00;;;;6281451;22;20152;-74
2023/08/01 08:26:57;;;;;;;2.45;1.65;;;19.30;99.90;23.50;99826.00;;;;6255497;22;20232;-73
2023/08/01 08:29:35;;;;;;;2.03;1.83;;;20.40;99.90;21.40;99826.00;;;;6280625;22;20188;-72
2023/08/01 08:32:42;;;;;;;7.80;2.95;;;20.20;99.90;21.50;99780.00;;;;6255053;22;20176;-72
2023/08/01 08:35:30;;;;;;;4.72;2.60;;;19.80;99.90;21.30;99832.00;;;;6273064;22;20163;-72
2023/08/01 08:38:34;;;;;;;1.45;1.23;;;19.80;99.90;22.40;99796.00;;;;6308055;22;20727;-72
2023/08/01 08:41:30;;;;;;;1.10;0.90;;;20.20;99.90;21.60;99839.00;;;;6227930;22;20248;-72
2023/08/01 08:44:01;;;;;;;2.00;1.48;;;20.00;99.90;21.50;99802.00;;;;6281207;22;20175;-72
2023/08/01 08:46:53;;;;;;;2.15;1.13;;;19.70;99.90;22.80;99859.00;;;;6254486;22;20152;-72
2023/08/01 08:49:22;;;;;;;1.38;1.27;;;20.60;99.90;23.20;99861.00;;;;6243908;22;20163;-73
2023/08/01 08:51:49;;;;;;;13.50;1.10;;;20.90;99.90;23.20;99861.00;;;;6255525;22;20255;-72
2023/08/01 08:54:20;;;;;;;0.10;0.10;;;21.10;99.90;24.10;99881.00;;;;6280429;22;20136;-73
2023/08/01 08:56:46;;;;;;;0.52;0.47;;;21.10;99.90;24.50;99858.00;;;;6307879;22;20629;-72
2023/08/01 08:59:34;;;;;;;1.00;0.82;;;21.50;99.90;22.80;99870.00;;;;6280668;22;20485;-72
2023/08/01 09:02:03;;;;;;;0.60;0.40;;;20.80;99.90;21.90;99849.00;;;;6304696;22;20167;-72
2023/08/01 09:04:31;;;;;;;1.73;1.48;;;20.00;99.90;19.70;99854.00;;;;6306633;22;20141;-73
2023/08/01 09:07:02;;;;;;;4.70;2.13;;;19.00;99.90;19.60;99865.00;;;;6306502;22;20160;-75
2023/08/01 09:09:28;;;;;;;0.90;0.90;;;18.00;99.90;20.30;99871.00;;;;6280742;22;20181;-72
2023/08/01 09:12:01;;;;;;;4.93;2.13;;;18.30;99.90;20.00;99877.00;;;;6280834;22;20179;-72
2023/08/01 09:14:48;;;;;;;1.43;1.07;;;18.10;99.90;19.50;99868.00;;;;6306496;22;20185;-73
2023/08/01 09:17:44;;;;;;;3.27;1.57;;;17.90;99.90;20.20;99843.00;;;;6305505;22;20169;-73
2023/08/01 09:20:10;;;;;;;1.30;1.20;;;17.90;99.90;21.30;99874.00;;;;6282804;22;20656;-73
2023/08/01 09:23:11;;;;;;;0.88;0.88;;;18.70;99.90;22.80;99859.00;;;;6305097;22;20144;-72
2023/08/01 09:26:53;;;;;;;0.20;0.20;;;20.10;99.90;22.10;99859.00;;;;6303897;22;20152;-73
2023/08/01 09:29:32;;;;;;;0.47;0.47;;;20.20;99.90;23.10;99866.00;;;;6243221;23;20248;-73
2023/08/01 09:32:12;;;;;;;0.30;0.30;;;20.50;99.90;23.20;99830.00;;;;6267624;22;20182;-73
2023/08/01 09:34:50;;;;;;;2.38;0.90;;;21.00;99.90;23.00;99887.00;;;;6305229;22;20156;-73
2023/08/01 09:37:27;;;;;;;14.32;1.38;;;21.30;99.90;24.80;99892.00;;;;6304908;22;20198;-73
2023/08/01 09:40:13;;;;;;;1.67;1.25;;;21.80;99.90;23.00;99878.00;;;;6305570;22;20231;-73
2023/08/01 09:42:51;;;;;;;4.85;1.42;;;21.30;99.90;22.10;99867.00;;;;6306555;22;20141;-73
2023/08/01 09:45:25;;;;;;;4.45;1.38;;;20.60;99.90;22.70;99856.00;;;;6279638;22;20485;-73
2023/08/01 09:47:59;;;;;;;3.85;1.77;;;20.70;99.90;22.80;99890.00;;;;6305148;22;20142;-72
2023/08/01 09:50:39;;;;;;;2.08;1.30;;;20.60;99.90;23.50;99913.00;;;;6307026;22;20573;-72
2023/08/01 09:53:19;;;;;;;1.48;0.20;;;21.10;99.90;24.20;99902.00;;;;6281060;22;20251;-73
2023/08/01 09:56:02;;;;;;;0.45;0.35;;;21.30;99.90;25.40;99921.00;;;;6280830;22;20183;-73
2023/08/01 09:58:40;;;;;;;2.40;1.20;;;22.40;99.90;24.70;99924.00;;;;6305991;22;20580;-73
2023/08/01 10:01:20;;;;;;;2.38;1.52;;;22.30;99.90;24.20;99916.00;;;;6305679;22;20164;-74
2023/08/01 10:03:59;;;;;;;0.10;0.10;;;21.80;99.90;24.40;99920.00;;;;6306047;22;20188;-73
2023/08/01 10:06:50;;;;;;;3.03;0.75;;;21.90;99.90;23.50;99915.00;;;;6306394;22;20160;-73
2023/08/01 10:09:41;;;;;;;1.20;0.80;;;21.70;99.90;23.30;99881.00;;;;6306403;22;20190;-73
2023/08/01 10:12:20;;;;;;;0.63;0.63;;;21.30;99.90;25.20;99928.00;;;;6280898;22;20504;-73
2023/08/01 10:14:55;;;;;;;0.10;0.10;;;21.70;99.90;23.60;99904.00;;;;6306014;22;20139;-73
2023/08/01 10:17:26;;;;;;;1.13;0.95;;;21.50;99.90;24.60;99841.00;;;;6306394;22;20591;-84
2023/08/01 10:19:55;;;;;;;2.67;0.60;;;21.60;99.90;24.20;99947.00;;;;6279838;22;20164;-72
2023/08/01 10:33:34;;;;;;;1.88;0.50;;;20.20;99.90;22.90;99931.00;;;;5070227;28;20556;-73
2023/08/01 10:36:00;;;;;;;0.88;0.75;;;20.40;99.90;23.10;99927.00;;;;5049633;28;20178;-73
2023/08/01 10:38:26;;;;;;;1.35;0.75;;;20.70;99.90;22.40;99927.00;;;;5047606;28;20192;-72
2023/08/01 10:40:55;;;;;;;1.98;1.27;;;20.60;99.90;23.40;99934.00;;;;5049503;28;20712;-72
2023/08/01 10:43:22;;;;;;;0.85;0.85;;;21.10;99.90;23.80;99928.00;;;;5031954;28;20285;-72
2023/08/01 10:46:02;;;;;;;7.10;3.03;;;21.30;99.90;25.90;99964.00;;;;5049176;28;20244;-72
2023/08/01 10:48:33;;;;;;;0.55;0.55;;;22.40;99.90;25.50;99968.00;;;;5077993;28;20186;-71
2023/08/01 10:51:02;;;;;;;1.63;1.50;;;22.50;99.90;26.10;100018.00;;;;5048164;28;20181;-72
2023/08/01 10:53:39;;;;;;;0.82;0.82;;;23.00;99.90;27.60;100035.00;;;;5028583;28;20209;-72
2023/08/01 10:56:05;;;;;;;3.03;0.65;;;23.80;99.90;26.20;100054.00;;;;5041597;28;20251;-69
2023/08/01 10:58:34;;;;;;;6.50;1.65;;;23.60;99.90;25.30;100047.00;;;;5047763;28;20707;-72
2023/08/01 11:01:03;;;;;;;0.10;0.10;;;22.80;99.90;27.00;100026.00;;;;5031883;28;20186;-72
2023/08/01 11:03:44;;;;;;;0.90;0.60;;;23.10;99.90;26.40;100061.00;;;;5031904;28;20194;-73
2023/08/01 11:06:10;;;;;;;2.13;0.88;;;23.30;99.90;23.50;100086.00;;;;5048031;28;20309;-72
2023/08/01 11:08:38;;;;;;;0.47;0.35;;;22.10;99.90;23.60;100036.00;;;;5049625;28;20175;-74
2023/08/01 11:11:11;;;;;;;0.55;0.55;;;21.50;99.90;24.00;100023.00;;;;5047339;28;20551;-73
2023/08/01 11:13:37;;;;;;;3.40;0.85;;;21.50;99.90;23.40;99995.00;;;;5047061;28;20511;-71
2023/08/01 11:16:12;;;;;;;2.28;1.23;;;21.30;99.90;23.70;100011.00;;;;5048428;28;20666;-69
2023/08/01 11:18:43;;;;;;;2.20;1.10;;;21.30;99.90;23.40;99993.00;;;;5048411;28;20686;-71
2023/08/01 11:21:09;;;;;;;2.95;1.23;;;21.20;99.90;23.90;100014.00;;;;5031777;28;20536;-71
2023/08/01 11:23:36;;;;;;;1.65;1.10;;;21.50;99.90;23.30;100002.00;;;;5047355;28;20405;-71
2023/08/01 11:26:10;;;;;;;4.22;1.55;;;21.30;99.90;23.00;99986.00;;;;5047035;28;20186;-71
2023/08/01 11:28:39;;;;;;;0.10;0.10;;;21.20;99.90;24.50;100003.00;;;;5047255;28;20331;-71
2023/08/01 11:31:14;;;;;;;8.25;1.48;;;21.50;99.90;25.50;100044.00;;;;5039175;28;20178;-72
2023/08/01 11:33:56;;;;;;;0.20;0.20;;;22.20;99.90;25.80;100044.00;;;;5045873;28;20193;-71
2023/08/01 11:36:28;;;;;;;2.10;1.15;;;22.40;99.90;24.20;100084.00;;;;5032180;28;20182;-72
2023/08/01 11:38:57;;;;;;;0.98;0.98;;;22.40;99.90;24.00;100066.00;;;;5048227;28;20178;-72
2023/08/01 11:41:24;;;;;;;0.38;0.38;;;21.80;99.90;24.40;100070.00;;;;5046680;28;20652;-71
2023/08/01 11:43:54;;;;;;;2.20;0.82;;;21.90;99.90;23.80;100039.00;;;;5038793;28;20191;-71
2023/08/01 11:46:31;;;;;;;1.10;0.57;;;21.90;99.90;25.80;100049.00;;;;5033697;28;20642;-72
2023/08/01 11:49:00;;;;;;;2.63;2.15;;;22.60;99.90;25.20;100114.00;;;;5034163;28;20186;-72
2023/08/01 11:51:29;;;;;;;1.42;1.30;;;22.80;99.90;23.90;100117.00;;;;5018181;28;20215;-71
2023/08/01 11:54:07;;;;;;;3.70;1.13;;;22.00;99.90;23.70;100097.00;;;;5033282;28;20665;-71
2023/08/01 11:57:03;;;;;;;0.20;0.20;;;21.60;99.90;24.80;100075.00;;;;5023685;28;20194;-71
2023/08/01 11:59:29;;;;;;;0.10;0.10;;;21.70;99.90;25.90;100093.00;;;;5024470;28;20191;-72
2023/08/01 12:01:55;;;;;;;0.10;0.10;;;22.30;99.90;25.70;100111.00;;;;5017836;28;20183;-71
2023/08/01 12:04:28;;;;;;;0.43;0.43;;;22.40;99.90;23.40;100137.00;;;;5034058;28;20657;-71
2023/08/01 12:06:55;;;;;;;1.25;0.80;;;21.90;99.90;23.70;100114.00;;;;5034181;28;20206;-71
2023/08/01 12:09:24;;;;;;;2.33;0.95;;;21.60;99.90;23.70;100106.00;;;;5035401;28;20179;-72
2023/08/01 12:12:02;;;;;;;0.20;0.20;;;21.40;99.90;24.80;100049.00;;;;5017577;28;20581;-71
2023/08/01 12:14:28;;;;;;;11.07;1.73;;;21.60;99.90;24.30;100080.00;;;;5034112;28;20253;-71
2023/08/01 12:16:54;;;;;;;0.10;0.10;;;21.70;99.90;25.90;100118.00;;;;5033885;28;20183;-71
2023/08/01 12:19:23;;;;;;;2.78;1.67;;;22.20;99.90;23.80;100090.00;;;;5034014;28;20268;-71
2023/08/01 12:21:49;;;;;;;0.25;0.25;;;21.70;99.90;25.10;100123.00;;;;5034775;28;20217;-70
2023/08/01 12:24:18;;;;;;;0.10;0.10;;;22.00;99.90;25.50;100120.00;;;;5035310;28;20206;-71
2023/08/01 12:26:44;;;;;;;1.13;0.68;;;22.50;99.90;23.80;100135.00;;;;5051047;28;20183;-71
2023/08/01 12:29:10;;;;;;;1.40;0.70;;;21.70;99.90;25.50;100133.00;;;;5033708;28;20282;-71
2023/08/01 12:31:36;;;;;;;0.40;0.38;;;22.20;99.90;25.80;100131.00;;;;5033533;28;20579;-71
2023/08/01 12:34:02;;;;;;;0.30;0.30;;;22.30;99.90;25.20;100147.00;;;;5031320;28;20191;-71
2023/08/01 12:36:28;;;;;;;0.32;0.32;;;22.20;99.90;25.70;100125.00;;;;5030136;28;20188;-71
2023/08/01 12:38:54;;;;;;;0.20;0.20;;;22.30;99.90;26.60;100125.00;;;;5029925;28;20636;-71
2023/08/01 12:41:20;;;;;;;0.52;0.47;;;22.80;99.90;26.70;100124.00;;;;5034830;28;20240;-71
2023/08/01 12:43:49;;;;;;;1.77;1.35;;;23.00;99.90;27.00;100133.00;;;;5033480;28;20199;-71
2023/08/01 12:46:15;;;;;;;0.57;0.35;;;23.20;99.90;25.10;100165.00;;;;5033407;28;20189;-71
2023/08/01 12:48:41;;;;;;;5.38;0.57;;;22.60;99.90;25.30;100158.00;;;;5034884;28;20187;-71
2023/08/01 12:51:08;;;;;;;0.10;0.10;;;22.10;99.90;26.10;100124.00;;;;5033611;28;20599;-71
2023/08/01 12:53:34;;;;;;;0.20;0.20;;;22.50;99.90;25.70;100173.00;;;;5032957;28;20206;-71
2023/08/01 12:56:03;;;;;;;2.47;1.25;;;22.30;99.90;23.90;100190.00;;;;5032528;28;20271;-70
2023/08/01 12:58:29;;;;;;;2.85;0.52;;;21.70;99.90;23.90;100175.00;;;;5034137;28;20187;-71
2023/08/01 13:00:56;;;;;;;0.80;0.80;;;21.70;99.90;24.00;100161.00;;;;5034365;28;20182;-71
2023/08/01 13:03:25;;;;;;;1.90;0.73;;;21.70;99.90;23.70;100164.00;;;;5030026;28;20280;-71
2023/08/01 13:05:52;;;;;;;1.40;1.02;;;21.70;99.90;24.80;100137.00;;;;5063617;28;20268;-70
2023/08/01 13:08:19;;;;;;;0.40;0.40;;;22.00;99.90;24.50;100165.00;;;;5032604;28;20284;-71
2023/08/01 13:10:46;;;;;;;0.10;0.10;;;22.00;99.90;26.70;100146.00;;;;5032804;28;20635;-70
2023/08/01 13:13:17;;;;;;;0.10;0.10;;;22.70;99.90;26.80;100109.00;;;;5032708;28;20711;-71
2023/08/01 13:15:43;;;;;;;0.43;0.43;;;23.20;99.90;27.60;100133.00;;;;5028018;28;20190;-70
2023/08/01 13:18:10;;;;;;;0.10;0.10;;;23.50;99.90;27.30;100150.00;;;;5032673;28;20186;-71
2023/08/01 13:20:36;;;;;;;1.77;0.77;;;23.60;99.90;26.40;100167.00;;;;5034025;28;20183;-71
2023/08/01 13:23:03;;;;;;;1.20;0.70;;;23.50;99.90;25.30;100194.00;;;;5015961;28;20214;-71
2023/08/01 13:25:29;;;;;;;5.10;0.57;;;22.70;99.90;25.70;100190.00;;;;5034130;28;20187;-71
2023/08/01 13:28:05;;;;;;;0.10;0.10;;;22.60;99.90;25.40;100205.00;;;;5032379;28;20197;-71
2023/08/01 13:30:31;;;;;;;0.20;0.20;;;22.30;99.90;25.60;100167.00;;;;5032881;28;20190;-71
2023/08/01 13:33:24;;;;;;;0.13;0.13;;;22.40;99.90;26.90;100181.00;;;;5031240;28;20273;-71
2023/08/01 13:35:59;;;;;;;0.80;0.57;;;23.00;99.90;25.50;100197.00;;;;5028500;28;20217;-70
2023/08/01 13:38:32;;;;;;;0.10;0.10;;;22.80;99.90;26.10;100200.00;;;;5015752;28;20200;-71
2023/08/01 13:41:07;;;;;;;1.23;1.00;;;22.60;99.90;25.60;100206.00;;;;5032675;28;20269;-71
2023/08/01 13:43:41;;;;;;;5.03;0.57;;;22.70;99.90;25.60;100217.00;;;;5028181;28;20244;-71
2023/08/01 13:46:19;;;;;;;0.10;0.10;;;22.60;99.90;25.80;100209.00;;;;5032351;28;20187;-71
2023/08/01 13:49:05;;;;;;;0.73;0.73;;;22.40;99.90;24.50;100215.00;;;;5032242;28;20182;-70
2023/08/01 13:51:34;;;;;;;0.20;0.20;;;22.10;99.90;25.20;100209.00;;;;5031586;28;20219;-71
2023/08/01 13:54:00;;;;;;;0.10;0.10;;;21.90;99.90;26.50;100199.00;;;;5033200;28;20241;-71
2023/08/01 13:56:29;;;;;;;0.50;0.50;;;22.50;99.90;26.40;100198.00;;;;5032192;28;20270;-71
2023/08/01 13:58:55;;;;;;;0.60;0.60;;;22.50;99.90;24.70;100182.00;;;;5033003;28;20183;-71
2023/08/01 14:01:24;;;;;;;3.45;0.68;;;22.00;99.90;24.60;100220.00;;;;5033371;28;20250;-71
2023/08/01 14:03:59;;;;;;;0.32;0.32;;;21.60;99.90;25.10;100224.00;;;;5033010;28;20213;-70
2023/08/01 14:06:24;;;;;;;2.38;1.38;;;21.60;99.90;24.40;100207.00;;;;5014877;28;20205;-71
2023/08/01 14:08:50;;;;;;;0.10;0.10;;;21.40;99.90;24.70;100198.00;;;;5032814;28;20187;-70
2023/08/01 14:11:19;;;;;;;0.45;0.45;;;21.40;99.90;23.50;100203.00;;;;5033286;28;20179;-71
2023/08/01 14:13:45;;;;;;;1.40;1.30;;;21.10;99.90;23.40;100167.00;;;;5015050;28;20201;-71
2023/08/01 14:16:11;;;;;;;0.80;0.40;;;20.80;99.90;23.60;100127.00;;;;5033399;28;20269;-71
2023/08/01 14:18:43;;;;;;;1.13;1.02;;;20.80;99.90;21.70;100121.00;;;;5011941;28;20191;-71
2023/08/01 14:21:09;;;;;;;0.68;0.55;;;20.20;99.90;22.10;100103.00;;;;5031496;28;20186;-71
2023/08/01 14:23:41;;;;;;;0.35;0.35;;;20.10;99.90;22.20;100103.00;;;;5033450;28;20266;-71
2023/08/01 14:26:07;;;;;;;0.20;0.20;;;20.20;99.90;21.60;100084.00;;;;5032203;28;20247;-71
2023/08/01 14:28:42;;;;;;;5.10;1.67;;;19.90;99.90;22.20;100097.00;;;;5032844;28;20183;-71
2023/08/01 14:31:11;;;;;;;5.03;1.75;;;19.80;99.90;22.30;100099.00;;;;5017245;28;20220;-71
2023/08/01 14:33:44;;;;;;;1.05;0.75;;;20.00;99.90;21.90;100097.00;;;;5031578;28;20190;-71
2023/08/01 14:36:14;;;;;;;1.65;0.75;;;19.90;99.90;20.40;100090.00;;;;5031635;28;20191;-71
2023/08/01 14:38:40;;;;;;;0.75;0.60;;;19.30;99.90;21.20;100094.00;;;;5031397;28;20190;-70
2023/08/01 14:41:09;;;;;;;0.10;0.10;;;19.20;99.90;22.00;100102.00;;;;5022013;28;20183;-71
2023/08/01 14:43:35;;;;;;;2.95;1.20;;;19.30;99.90;21.60;100102.00;;;;5027607;28;20201;-71
2023/08/01 14:46:04;;;;;;;6.43;1.98;;;19.50;99.90;21.60;100086.00;;;;5031339;28;20194;-71
2023/08/01 14:48:32;;;;;;;0.25;0.25;;;19.50;99.90;22.80;100096.00;;;;5032874;28;20182;-71
2023/08/01 14:51:04;;;;;;;0.25;0.17;;;19.90;99.90;23.70;100097.00;;;;5031296;28;20207;-71
2023/08/01 14:53:34;;;;;;;0.52;0.45;;;20.40;99.90;22.60;100103.00;;;;5032332;28;20194;-71
2023/08/01 14:56:02;;;;;;;0.60;0.60;;;20.50;99.90;22.30;100088.00;;;;5015040;28;20232;-71
2023/08/01 14:58:32;;;;;;;0.43;0.43;;;20.20;99.90;22.60;100062.00;;;;5031569;28;20282;-71
2023/08/01 15:01:01;;;;;;;0.30;0.30;;;20.20;99.90;23.10;100108.00;;;;5023968;28;20186;-71
2023/08/01 15:03:27;;;;;;;0.73;0.73;;;20.60;99.90;22.40;100050.00;;;;5026712;28;20237;-71
2023/08/01 15:05:53;;;;;;;1.15;0.85;;;20.30;99.90;22.20;100076.00;;;;5032577;28;20190;-71
2023/08/01 15:08:28;;;;;;;0.22;0.22;;;20.20;99.90;22.40;100083.00;;;;5032423;28;20210;-71
2023/08/01 15:10:54;;;;;;;0.82;0.82;;;20.10;99.90;22.70;100089.00;;;;5032300;28;20653;-71
2023/08/01 15:13:20;;;;;;;0.38;0.38;;;20.30;99.90;22.60;100095.00;;;;5032397;28;20229;-71
2023/08/01 15:15:57;;;;;;;0.10;0.10;;;20.40;99.90;23.50;100059.00;;;;5031614;28;20191;-71
2023/08/01 15:18:23;;;;;;;1.10;1.00;;;20.70;99.90;22.60;100089.00;;;;5031753;28;20556;-71
2023/08/01 15:20:53;;;;;;;1.00;0.85;;;20.50;99.90;23.20;100101.00;;;;5034942;28;20190;-71
2023/08/01 15:23:22;;;;;;;1.83;0.82;;;20.60;99.90;23.40;100121.00;;;;5051555;28;20525;-71
2023/08/01 15:25:56;;;;;;;0.20;0.20;;;20.80;99.90;23.20;100121.00;;;;5015102;28;20278;-70
2023/08/01 15:28:23;;;;;;;3.72;2.13;;;20.80;99.90;22.60;100108.00;;;;5061526;28;20221;-71
2023/08/01 15:31:10;;;;;;;0.32;0.32;;;20.50;99.90;24.20;100145.00;;;;5030890;28;20179;-71
2023/08/01 15:33:41;;;;;;;0.30;0.30;;;21.10;99.90;23.40;100078.00;;;;5017422;28;20221;-71
2023/08/01 15:36:07;;;;;;;0.52;0.40;;;20.90;99.90;24.60;100139.00;;;;5034618;28;20225;-71
2023/08/01 15:38:37;;;;;;;0.22;0.22;;;21.30;99.90;22.60;100172.00;;;;5034688;28;20193;-71
2023/08/01 15:41:07;;;;;;;0.15;0.15;;;21.00;99.90;22.60;100126.00;;;;5034656;28;20186;-71
2023/08/01 15:43:42;;;;;;;1.92;0.70;;;20.50;99.90;22.70;100093.00;;;;5018536;28;20182;-71
2023/08/01 15:46:09;;;;;;;2.05;1.45;;;20.40;99.90;22.30;100119.00;;;;5034415;28;20547;-71
2023/08/01 15:48:41;;;;;;;0.40;0.40;;;20.20;99.90;22.20;100101.00;;;;5018073;28;20191;-71
2023/08/01 15:51:13;;;;;;;4.18;0.85;;;20.10;99.90;22.60;100080.00;;;;5034250;28;20706;-71
2023/08/01 15:53:42;;;;;;;0.20;0.20;;;20.20;99.90;22.60;100108.00;;;;5035515;28;20183;-70
2023/08/01 15:56:10;;;;;;;0.45;0.45;;;20.20;99.90;22.10;100103.00;;;;5035336;28;20274;-71
2023/08/01 15:58:37;;;;;;;0.50;0.50;;;20.00;99.90;22.40;100104.00;;;;5034523;28;20210;-71
2023/08/01 16:01:06;;;;;;;1.00;1.00;;;19.90;99.90;21.80;100042.00;;;;5034423;28;20175;-71
2023/08/01 16:03:35;;;;;;;0.20;0.20;;;19.80;99.90;22.00;100106.00;;;;5034075;28;20202;-71
2023/08/01 16:06:03;;;;;;;3.53;0.50;;;19.80;99.90;21.70;100102.00;;;;5034063;28;20182;-71
2023/08/01 16:08:31;;;;;;;0.47;0.47;;;19.70;99.90;22.80;100116.00;;;;5034527;28;20183;-71
2023/08/01 16:11:00;;;;;;;0.57;0.55;;;19.90;99.90;21.40;100051.00;;;;5034137;28;20718;-71
2023/08/01 16:13:29;;;;;;;0.10;0.10;;;19.70;99.90;21.90;100096.00;;;;5017908;28;20221;-71
2023/08/01 16:15:56;;;;;;;6.40;0.77;;;19.50;99.90;22.00;100101.00;;;;5033596;28;20216;-71
2023/08/01 16:18:28;;;;;;;0.20;0.20;;;19.60;99.90;22.10;100102.00;;;;5034264;28;20190;-71
2023/08/01 16:20:57;;;;;;;0.32;0.32;;;19.70;99.90;21.50;100091.00;;;;5033991;28;20190;-70
2023/08/01 16:23:23;;;;;;;2.88;1.10;;;19.60;99.90;21.80;100098.00;;;;5026868;28;20203;-71
2023/08/01 16:25:52;;;;;;;0.88;0.82;;;19.50;99.90;21.80;100083.00;;;;5027581;28;20191;-71
2023/08/01 16:28:26;;;;;;;2.05;1.95;;;19.40;99.90;22.70;100109.00;;;;5014097;28;20195;-71
2023/08/01 16:30:52;;;;;;;2.85;0.40;;;19.70;99.90;21.40;100098.00;;;;5062318;28;20182;-70
2023/08/01 16:33:18;;;;;;;1.05;1.00;;;19.50;99.90;22.30;100103.00;;;;5020543;28;20219;-72
2023/08/01 16:35:44;;;;;;;0.32;0.32;;;19.50;99.90;22.40;100067.00;;;;5048623;28;20201;-71
2023/08/01 16:38:10;;;;;;;9.23;1.35;;;19.70;99.90;21.40;100085.00;;;;5034802;28;20194;-71
2023/08/01 16:40:38;;;;;;;0.80;0.57;;;19.50;99.90;21.80;100084.00;;;;5016990;28;20190;-71
2023/08/01 16:43:04;;;;;;;0.60;0.60;;;19.40;99.90;23.00;100115.00;;;;5033168;28;20187;-71
2023/08/01 16:45:33;;;;;;;4.10;1.20;;;19.90;99.90;22.00;100100.00;;;;5034559;28;20256;-71
2023/08/01 16:48:00;;;;;;;3.03;1.38;;;19.80;99.90;21.60;100061.00;;;;5017147;28;20187;-71
2023/08/01 16:50:31;;;;;;;0.65;0.28;;;19.50;99.90;22.60;100115.00;;;;5033337;28;20193;-71
2023/08/01 16:53:04;;;;;;;0.85;0.85;;;19.70;99.90;21.40;100084.00;;;;5016945;28;20268;-71
2023/08/01 16:55:33;;;;;;;1.77;0.47;;;19.40;99.90;21.80;100098.00;;;;5034338;28;20194;-71
2023/08/01 16:57:59;;;;;;;0.20;0.20;;;19.30;99.90;21.80;100101.00;;;;5016773;28;20558;-71
2023/08/01 17:00:33;;;;;;;0.95;0.43;;;19.40;99.90;22.00;100087.00;;;;5035486;28;20186;-71
2023/08/01 17:03:09;;;;;;;0.10;0.10;;;19.60;99.90;21.80;100085.00;;;;5032556;28;20276;-71
2023/08/01 17:05:41;;;;;;;0.52;0.52;;;19.50;99.90;21.40;100089.00;;;;5033279;28;20553;-71
2023/08/01 17:08:07;;;;;;;0.30;0.30;;;19.40;99.90;21.50;100068.00;;;;5032789;28;20197;-71
2023/08/01 17:10:36;;;;;;;0.35;0.35;;;19.40;99.90;21.70;100069.00;;;;5032891;28;20265;-71
2023/08/01 17:13:11;;;;;;;0.45;0.43;;;19.40;99.90;22.00;100097.00;;;;5032521;28;20217;-71
2023/08/01 17:15:48;;;;;;;0.20;0.20;;;19.50;99.90;22.50;100044.00;;;;5032633;28;20182;-71
2023/08/01 17:18:18;;;;;;;0.10;0.10;;;19.70;99.90;21.80;100067.00;;;;5026899;28;20244;-71
2023/08/01 17:20:45;;;;;;;0.10;0.10;;;19.60;99.90;22.10;100089.00;;;;5034002;28;20691;-71
2023/08/01 17:23:11;;;;;;;0.10;0.10;;;19.60;99.90;22.30;100076.00;;;;5016314;28;20190;-71
2023/08/01 17:25:59;;;;;;;0.30;0.30;;;19.60;99.90;23.40;100095.00;;;;5032896;28;20217;-72
2023/08/01 17:28:32;;;;;;;1.67;1.65;;;20.00;99.90;23.80;100092.00;;;;5015766;28;20207;-71
2023/08/01 17:31:04;;;;;;;0.30;0.30;;;20.40;99.90;21.60;100075.00;;;;5012846;28;20223;-71
2023/08/01 17:33:36;;;;;;;1.60;0.73;;;19.80;99.90;21.40;100065.00;;;;5014927;28;20203;-71
2023/08/01 17:36:02;;;;;;;0.88;0.30;;;19.40;99.90;21.30;100062.00;;;;5032610;28;20269;-71
2023/08/01 17:38:29;;;;;;;0.20;0.20;;;19.20;99.90;21.40;100077.00;;;;5032630;28;20183;-71
2023/08/01 17:40:55;;;;;;;0.10;0.10;;;19.20;99.90;22.50;100043.00;;;;5032071;28;20270;-72
2023/08/01 17:43:21;;;;;;;0.20;0.20;;;19.40;99.90;22.00;100078.00;;;;5032089;28;20199;-71
2023/08/01 17:45:47;;;;;;;0.10;0.10;;;19.40;99.90;22.30;100078.00;;;;5034069;28;20190;-71
2023/08/01 17:48:15;;;;;;;0.15;0.15;;;19.60;99.90;22.50;100079.00;;;;5033736;28;20175;-71
2023/08/01 17:50:44;;;;;;;0.10;0.10;;;19.70;99.90;23.80;100089.00;;;;5032377;28;20206;-71
2023/08/01 17:53:10;;;;;;;0.10;0.10;;;20.10;99.90;23.00;100078.00;;;;5032378;28;20684;-71
2023/08/01 17:55:36;;;;;;;0.65;0.65;;;20.00;99.90;22.50;100068.00;;;;5017692;28;20705;-71
2023/08/01 17:58:05;;;;;;;0.10;0.10;;;19.80;99.90;22.40;100065.00;;;;5024408;28;20187;-71
2023/08/01 18:00:31;;;;;;;1.10;0.38;;;19.80;99.90;22.60;100077.00;;;;5032239;28;20193;-71
2023/08/01 18:02:57;;;;;;;0.10;0.10;;;19.70;99.90;22.80;100081.00;;;;5032207;28;20183;-72
2023/08/01 18:05:32;;;;;;;4.38;0.50;;;19.80;99.90;22.70;100077.00;;;;5032200;28;20233;-72
2023/08/01 18:08:01;;;;;;;0.43;0.43;;;19.90;99.90;23.00;100081.00;;;;5039089;28;20538;-71
2023/08/01 18:10:30;;;;;;;0.10;0.10;;;19.80;99.90;23.10;100080.00;;;;5032373;28;20182;-71
2023/08/01 18:12:56;;;;;;;0.17;0.17;;;19.90;99.90;24.10;100075.00;;;;5032740;28;20575;-71
2023/08/01 18:15:42;;;;;;;0.20;0.20;;;20.30;99.90;24.20;100066.00;;;;5033110;28;20191;-71
2023/08/01 18:18:08;;;;;;;0.10;0.10;;;20.50;99.90;23.30;100076.00;;;;5031576;28;20276;-71
2023/08/01 18:20:44;;;;;;;3.53;0.65;;;20.30;99.90;23.60;100092.00;;;;5031926;28;20242;-71
2023/08/01 18:23:20;;;;;;;0.10;0.10;;;20.40;99.90;22.40;100074.00;;;;5027942;28;20262;-72